createdAt,value
2023-02-18T00:01:47.851Z,5.10
2023-02-18T00:04:33.760Z,4.73
2023-02-18T00:07:19.436Z,5.30
2023-02-18T00:10:06.192Z,4.70
2023-02-18T00:12:51.810Z,5.23
2023-02-18T00:15:38.892Z,5.30
2023-02-18T00:18:24.029Z,5.15
2023-02-18T00:21:10.263Z,4.80
2023-02-18T00:23:55.825Z,5.00
2023-02-18T00:26:42.191Z,4.93
2023-02-18T00:29:27.939Z,4.77
2023-02-18T00:32:13.321Z,4.83
2023-02-18T00:34:59.071Z,4.80
2023-02-18T00:37:44.653Z,4.93
2023-02-18T00:40:30.073Z,4.97
2023-02-18T00:43:15.828Z,4.53
2023-02-18T00:46:02.206Z,4.73
2023-02-18T00:48:48.011Z,4.50
2023-02-18T00:51:34.312Z,5.10
2023-02-18T00:54:19.969Z,4.93
2023-02-18T00:57:05.643Z,4.33
2023-02-18T00:59:51.270Z,4.77
2023-02-18T01:02:36.945Z,4.77
2023-02-18T01:05:22.540Z,4.80
2023-02-18T01:08:09.660Z,5.20
2023-02-18T01:10:57.204Z,5.20
2023-02-18T01:13:43.024Z,5.67
2023-02-18T01:16:28.463Z,5.50
2023-02-18T01:19:13.981Z,5.53
2023-02-18T01:21:59.488Z,5.50
2023-02-18T01:24:46.485Z,5.37
2023-02-18T01:27:32.348Z,5.40
2023-02-18T01:30:18.837Z,6.07
2023-02-18T01:33:04.223Z,6.33
2023-02-18T01:35:50.433Z,5.13
2023-02-18T01:38:36.483Z,5.87
2023-02-18T01:41:22.197Z,5.63
2023-02-18T01:44:16.725Z,5.27
2023-02-18T01:47:02.169Z,5.40
2023-02-18T01:49:52.974Z,5.20
2023-02-18T01:52:38.664Z,5.50
2023-02-18T01:55:24.444Z,5.30
2023-02-18T01:58:11.335Z,5.33
2023-02-18T02:00:57.752Z,6.07
2023-02-18T02:03:43.191Z,4.90
2023-02-18T02:06:28.729Z,4.80
2023-02-18T02:09:17.753Z,4.23
2023-02-18T02:12:25.208Z,4.93
2023-02-18T02:15:13.766Z,5.07
2023-02-18T02:18:14.935Z,4.47
2023-02-18T02:21:25.998Z,4.87
2023-02-18T02:24:41.851Z,4.47
2023-02-18T02:27:56.201Z,4.80
2023-02-18T02:30:47.790Z,4.93
2023-02-18T02:33:55.540Z,4.77
2023-02-18T02:36:54.478Z,4.70
2023-02-18T02:40:17.740Z,4.43
2023-02-18T02:43:41.694Z,4.43
2023-02-18T02:46:30.517Z,4.80
2023-02-18T02:49:33.984Z,4.20
2023-02-18T02:52:27.917Z,5.80
2023-02-18T02:55:14.287Z,4.47
2023-02-18T02:57:59.905Z,5.30
2023-02-18T03:01:07.743Z,4.17
2023-02-18T03:04:31.572Z,4.67
2023-02-18T03:07:52.725Z,4.40
2023-02-18T03:10:59.725Z,4.30
2023-02-18T03:14:03.206Z,4.50
2023-02-18T03:17:09.696Z,4.37
2023-02-18T03:20:10.611Z,4.43
2023-02-18T03:22:58.577Z,4.27
2023-02-18T03:25:44.328Z,4.80
2023-02-18T03:28:32.310Z,4.53
2023-02-18T03:31:21.539Z,4.00
2023-02-18T03:34:16.155Z,4.30
2023-02-18T03:37:02.560Z,4.15
2023-02-18T03:39:52.940Z,4.37
2023-02-18T03:42:38.593Z,3.90
2023-02-18T03:45:25.564Z,4.17
2023-02-18T03:48:11.070Z,3.70
2023-02-18T03:50:56.685Z,4.10
2023-02-18T03:53:42.456Z,3.70
2023-02-18T03:56:27.943Z,4.40
2023-02-18T03:59:13.748Z,4.00
2023-02-18T04:01:59.241Z,4.20
2023-02-18T04:04:44.495Z,4.37
2023-02-18T04:07:29.994Z,4.10
2023-02-18T04:10:15.532Z,4.37
2023-02-18T04:13:00.908Z,4.13
2023-02-18T04:15:46.603Z,3.93
2023-02-18T04:18:31.828Z,3.87
2023-02-18T04:21:17.577Z,4.30
2023-02-18T04:24:02.941Z,3.97
2023-02-18T04:26:48.568Z,3.57
2023-02-18T04:29:34.272Z,3.90
2023-02-18T04:32:19.746Z,3.97
2023-02-18T04:35:06.366Z,3.50
2023-02-18T04:37:51.906Z,3.90
2023-02-18T04:40:37.561Z,3.80
2023-02-18T04:43:22.865Z,3.90
2023-02-18T04:46:08.831Z,4.17
2023-02-18T04:48:54.132Z,4.27
2023-02-18T04:51:39.903Z,4.30
2023-02-18T04:54:25.359Z,4.53
2023-02-18T04:57:11.317Z,3.47
2023-02-18T04:59:56.769Z,3.90
2023-02-18T05:02:42.726Z,3.50
2023-02-18T05:05:28.419Z,4.13
2023-02-18T05:08:14.297Z,4.13
2023-02-18T05:10:59.817Z,4.33
2023-02-18T05:13:45.101Z,4.30
2023-02-18T05:16:30.630Z,4.37
2023-02-18T05:19:16.968Z,3.67
2023-02-18T05:22:02.403Z,4.30
2023-02-18T05:24:48.023Z,3.47
2023-02-18T05:27:33.534Z,3.83
2023-02-18T05:30:19.119Z,3.43
2023-02-18T05:33:04.597Z,3.83
2023-02-18T05:35:49.890Z,3.50
2023-02-18T05:38:35.592Z,3.70
2023-02-18T05:41:21.148Z,3.47
2023-02-18T05:44:25.162Z,3.13
2023-02-18T05:47:13.081Z,3.37
2023-02-18T05:50:01.246Z,3.60
2023-02-18T05:52:46.993Z,3.10
2023-02-18T05:55:33.286Z,2.87
2023-02-18T05:58:18.781Z,2.47
2023-02-18T06:01:04.786Z,2.33
2023-02-18T06:03:50.027Z,2.83
2023-02-18T06:06:35.868Z,2.23
2023-02-18T06:09:21.385Z,2.33
2023-02-18T06:12:07.075Z,2.67
2023-02-18T06:14:52.651Z,2.50
2023-02-18T06:17:38.173Z,2.50
2023-02-18T06:20:23.775Z,2.50
2023-02-18T06:23:11.609Z,2.30
2023-02-18T06:25:57.310Z,2.50
2023-02-18T06:28:42.952Z,2.50
2023-02-18T06:31:28.430Z,2.37
2023-02-18T06:34:14.188Z,2.30
2023-02-18T06:37:01.253Z,2.90
2023-02-18T06:39:46.805Z,2.60
2023-02-18T06:42:32.372Z,2.73
2023-02-18T06:45:18.051Z,2.50
2023-02-18T06:48:03.374Z,3.20
2023-02-18T06:50:49.304Z,2.40
2023-02-18T06:53:34.643Z,2.50
2023-02-18T06:56:20.367Z,2.20
2023-02-18T06:59:05.889Z,2.70
2023-02-18T07:01:51.778Z,2.23
2023-02-18T07:04:37.333Z,3.43
2023-02-18T07:07:23.115Z,3.00
2023-02-18T07:10:09.178Z,2.80
2023-02-18T07:12:54.578Z,2.80
2023-02-18T07:15:40.357Z,2.73
2023-02-18T07:18:25.591Z,2.70
2023-02-18T07:21:11.360Z,2.70
2023-02-18T07:23:56.455Z,2.53
2023-02-18T07:26:42.045Z,3.00
2023-02-18T07:29:27.480Z,2.70
2023-02-18T07:32:15.652Z,3.23
2023-02-18T07:35:01.359Z,2.67
2023-02-18T07:37:48.094Z,2.77
2023-02-18T07:40:33.367Z,2.50
2023-02-18T07:43:20.115Z,2.87
2023-02-18T07:46:08.818Z,3.43
2023-02-18T07:48:54.498Z,3.30
2023-02-18T07:51:40.408Z,3.47
2023-02-18T07:54:25.853Z,3.87
2023-02-18T07:57:11.595Z,3.50
2023-02-18T07:59:56.906Z,3.40
2023-02-18T08:02:42.290Z,3.40
2023-02-18T08:05:27.690Z,3.00
2023-02-18T08:08:15.188Z,3.40
2023-02-18T08:11:13.296Z,3.20
2023-02-18T08:14:03.688Z,3.50
2023-02-18T08:16:49.446Z,2.90
2023-02-18T08:19:34.687Z,3.17
2023-02-18T08:22:20.317Z,3.57
2023-02-18T08:25:06.275Z,3.50
2023-02-18T08:27:51.847Z,3.40
2023-02-18T08:30:37.494Z,2.87
2023-02-18T08:33:24.151Z,2.67
2023-02-18T08:36:11.175Z,3.10
2023-02-18T08:38:57.249Z,3.17
2023-02-18T08:41:42.488Z,3.20
2023-02-18T08:44:28.346Z,2.75
2023-02-18T08:48:17.132Z,2.42
2023-02-18T08:50:26.175Z,2.60
2023-02-18T08:53:11.741Z,2.45
2023-02-18T08:55:57.368Z,3.20
2023-02-18T08:58:43.627Z,2.20
2023-02-18T09:01:29.454Z,2.25
2023-02-18T09:04:14.911Z,2.45
2023-02-18T09:07:00.327Z,2.70
2023-02-18T09:09:45.921Z,2.50
2023-02-18T09:12:31.387Z,2.60
2023-02-18T09:15:17.275Z,2.08
2023-02-18T09:18:02.664Z,2.22
2023-02-18T09:20:47.925Z,2.20
2023-02-18T09:23:35.147Z,2.22
2023-02-18T09:26:23.162Z,2.33
2023-02-18T09:29:09.736Z,1.90
2023-02-18T09:31:55.235Z,2.35
2023-02-18T09:34:40.875Z,2.55
2023-02-18T09:37:26.626Z,2.42
2023-02-18T09:40:26.058Z,2.67
2023-02-18T09:43:21.959Z,2.42
2023-02-18T09:46:30.616Z,2.83
2023-02-18T09:49:19.791Z,2.80
2023-02-18T09:52:29.988Z,2.55
2023-02-18T09:55:38.870Z,2.22
2023-02-18T09:58:29.523Z,2.00
2023-02-18T10:01:37.507Z,2.80
2023-02-18T10:04:30.888Z,2.72
2023-02-18T10:07:24.138Z,2.25
2023-02-18T10:10:37.840Z,2.50
2023-02-18T10:13:28.376Z,2.50
2023-02-18T10:16:19.428Z,2.70
2023-02-18T10:19:31.215Z,2.85
2023-02-18T10:22:18.312Z,2.70
2023-02-18T10:25:06.973Z,2.72
2023-02-18T10:27:55.225Z,2.38
2023-02-18T10:30:42.097Z,2.92
2023-02-18T10:33:30.416Z,2.47
2023-02-18T10:36:25.478Z,2.80
2023-02-18T10:42:25.142Z,2.28
2023-02-18T10:45:32.683Z,2.60
2023-02-18T10:48:38.543Z,2.67
2023-02-18T10:51:29.742Z,2.42
2023-02-18T10:54:16.034Z,1.73
2023-02-18T10:57:02.279Z,1.80
2023-02-18T11:00:10.917Z,1.60
2023-02-18T11:03:21.130Z,1.58
2023-02-18T11:06:15.556Z,1.40
2023-02-18T11:09:02.156Z,1.55
2023-02-18T11:11:50.701Z,1.30
2023-02-18T11:14:46.423Z,1.20
2023-02-18T11:17:34.256Z,1.23
2023-02-18T11:20:30.462Z,1.20
2023-02-18T11:23:20.351Z,1.30
2023-02-18T11:26:12.323Z,1.20
2023-02-18T11:29:09.080Z,1.30
2023-02-18T11:31:57.052Z,1.10
2023-02-18T11:34:43.515Z,1.20
2023-02-18T11:37:32.405Z,1.20
2023-02-18T11:40:28.705Z,1.23
2023-02-18T11:43:17.609Z,1.50
2023-02-18T11:46:16.061Z,1.40
2023-02-18T11:49:22.792Z,1.60
2023-02-18T11:52:28.815Z,1.77
2023-02-18T11:55:27.355Z,1.65
2023-02-18T11:58:15.406Z,1.58
2023-02-18T12:01:06.434Z,1.83
2023-02-18T12:04:18.565Z,1.70
2023-02-18T12:07:20.978Z,1.55
2023-02-18T12:10:28.310Z,1.80
2023-02-18T12:13:42.969Z,1.77
2023-02-18T12:16:39.811Z,1.42
2023-02-18T12:19:47.202Z,2.20
2023-02-18T12:22:41.815Z,2.25
2023-02-18T12:25:57.905Z,2.20
2023-02-18T12:28:58.548Z,2.22
2023-02-18T12:31:55.216Z,2.00
2023-02-18T12:35:01.691Z,2.30
2023-02-18T12:38:10.251Z,2.10
2023-02-18T12:41:26.584Z,2.50
2023-02-18T12:44:21.568Z,2.60
2023-02-18T12:47:28.824Z,2.65
2023-02-18T12:50:41.104Z,2.67
2023-02-18T12:54:06.972Z,2.70
2023-02-18T12:57:07.354Z,2.50
2023-02-18T13:00:23.726Z,2.40
2023-02-18T13:03:49.673Z,1.90
2023-02-18T13:06:53.782Z,1.88
2023-02-18T13:10:12.130Z,1.95
2023-02-18T13:13:02.777Z,1.90
2023-02-18T13:15:59.630Z,2.10
2023-02-18T13:19:01.419Z,2.30
2023-02-18T13:21:50.907Z,2.30
2023-02-18T13:24:38.992Z,2.08
2023-02-18T13:27:46.002Z,2.00
2023-02-18T13:30:40.286Z,2.00
2023-02-18T13:33:34.343Z,2.20
2023-02-18T13:37:05.429Z,1.85
2023-02-18T13:39:56.877Z,1.80
2023-02-18T13:42:42.474Z,2.53
2023-02-18T13:45:29.488Z,2.15
2023-02-18T13:48:28.492Z,2.00
2023-02-18T13:51:17.140Z,1.70
2023-02-18T13:54:09.046Z,1.52
2023-02-18T13:57:04.652Z,1.80
2023-02-18T14:00:05.222Z,1.58
2023-02-18T14:03:02.767Z,1.70
2023-02-18T14:05:48.150Z,1.73
2023-02-18T14:08:39.422Z,2.08
2023-02-18T14:11:32.450Z,1.70
2023-02-18T14:14:27.562Z,1.90
2023-02-18T14:17:19.293Z,2.15
2023-02-18T14:20:04.688Z,1.80
2023-02-18T14:22:52.307Z,1.60
2023-02-18T14:25:41.378Z,2.50
2023-02-18T14:28:38.860Z,2.10
2023-02-18T14:31:54.450Z,1.70
2023-02-18T14:34:53.026Z,1.55
2023-02-18T14:37:51.307Z,1.85
2023-02-18T14:41:08.521Z,2.00
2023-02-18T14:44:16.009Z,1.83
2023-02-18T14:47:33.365Z,1.70
2023-02-18T14:50:20.722Z,1.88
2023-02-18T14:53:13.355Z,2.00
2023-02-18T14:56:03.744Z,2.00
2023-02-18T14:58:54.107Z,2.03
2023-02-18T15:01:40.376Z,1.90
2023-02-18T15:04:26.776Z,2.00
2023-02-18T15:07:13.631Z,1.70
2023-02-18T15:10:00.763Z,1.88
2023-02-18T15:12:46.241Z,2.08
2023-02-18T15:15:34.210Z,1.70
2023-02-18T15:18:42.533Z,1.63
2023-02-18T15:21:31.693Z,2.08
2023-02-18T15:24:35.298Z,1.90
2023-02-18T15:27:22.556Z,1.80
2023-02-18T15:30:29.033Z,1.63
2023-02-18T15:33:18.091Z,1.90
2023-02-18T15:36:06.764Z,1.70
2023-02-18T15:38:53.238Z,2.17
2023-02-18T15:41:39.763Z,1.77
2023-02-18T15:44:28.511Z,2.20
2023-02-18T15:47:14.719Z,2.00
2023-02-18T15:50:02.875Z,2.00
2023-02-18T15:52:49.570Z,1.90
2023-02-18T15:55:41.114Z,2.05
2023-02-18T15:58:32.845Z,2.08
2023-02-18T16:01:30.356Z,1.73
2023-02-18T16:04:16.501Z,2.22
2023-02-18T16:07:05.345Z,2.10
2023-02-18T16:09:57.614Z,2.00
2023-02-18T16:12:49.067Z,2.30
2023-02-18T16:15:43.188Z,2.40
2023-02-18T16:18:35.226Z,2.08
2023-02-18T16:21:20.760Z,2.00
2023-02-18T16:24:23.454Z,2.38
2023-02-18T16:27:15.566Z,2.22
2023-02-18T16:30:07.738Z,2.10
2023-02-18T16:32:54.326Z,2.65
2023-02-18T16:35:49.613Z,2.40
2023-02-18T16:38:36.252Z,2.20
2023-02-18T16:41:21.854Z,1.92
2023-02-18T16:44:14.166Z,2.50
2023-02-18T16:46:59.655Z,2.50
2023-02-18T16:49:47.439Z,1.92
2023-02-18T16:52:32.807Z,3.33
2023-02-18T16:55:23.913Z,6.97
2023-02-18T16:58:09.215Z,7.10
2023-02-18T17:00:55.284Z,5.75
2023-02-18T17:03:41.188Z,4.35
2023-02-18T17:06:27.010Z,2.70
2023-02-18T17:09:22.406Z,2.80
2023-02-18T17:12:07.900Z,2.92
2023-02-18T17:14:53.356Z,3.05
2023-02-18T17:17:38.896Z,2.50
2023-02-18T17:20:25.401Z,3.00
2023-02-18T17:23:21.901Z,3.50
2023-02-18T17:26:14.663Z,2.95
2023-02-18T17:29:00.853Z,2.67
2023-02-18T17:31:47.292Z,2.97
2023-02-18T17:34:32.980Z,3.20
2023-02-18T17:37:18.399Z,3.17
2023-02-18T17:40:04.078Z,3.30
2023-02-18T17:42:50.053Z,3.35
2023-02-18T17:45:39.901Z,3.60
2023-02-18T17:48:26.427Z,4.13
2023-02-18T17:51:18.261Z,4.13
2023-02-18T17:54:04.528Z,3.80
2023-02-18T17:56:50.209Z,3.30
2023-02-18T17:59:35.389Z,3.80
2023-02-18T18:02:27.761Z,3.65
2023-02-18T18:05:19.225Z,3.78
2023-02-18T18:08:05.760Z,3.80
2023-02-18T18:10:54.818Z,3.97
2023-02-18T18:13:40.281Z,3.90
2023-02-18T18:16:26.296Z,4.35
2023-02-18T18:19:11.889Z,4.57
2023-02-18T18:21:57.391Z,3.90
2023-02-18T18:24:43.164Z,4.70
2023-02-18T18:27:28.465Z,6.10
2023-02-18T18:30:14.429Z,6.35
2023-02-18T18:33:00.170Z,5.95
2023-02-18T18:35:47.932Z,5.60
2023-02-18T18:38:33.485Z,6.30
2023-02-18T18:41:21.394Z,5.40
2023-02-18T18:44:06.975Z,4.20
2023-02-18T18:46:52.662Z,4.10
2023-02-18T18:49:39.310Z,4.15
2023-02-18T18:52:24.564Z,5.35
2023-02-18T18:55:27.647Z,7.20
2023-02-18T18:58:13.118Z,4.55
2023-02-18T19:01:01.062Z,4.93
2023-02-18T19:03:47.322Z,5.18
2023-02-18T19:06:32.738Z,5.07
2023-02-18T19:09:18.129Z,4.63
2023-02-18T19:12:04.025Z,4.75
2023-02-18T19:14:49.616Z,5.05
2023-02-18T19:17:35.338Z,4.82
2023-02-18T19:20:27.013Z,4.90
2023-02-18T19:23:12.490Z,4.70
2023-02-18T19:25:58.905Z,4.25
2023-02-18T19:28:45.752Z,3.90
2023-02-18T19:31:31.443Z,4.38
2023-02-18T19:34:16.980Z,4.65
2023-02-18T19:37:02.564Z,4.55
2023-02-18T19:39:47.940Z,4.30
2023-02-18T19:42:33.810Z,4.28
2023-02-18T19:45:20.181Z,4.35
2023-02-18T19:48:05.801Z,4.00
2023-02-18T19:50:51.334Z,4.75
2023-02-18T19:53:38.153Z,5.18
2023-02-18T19:56:25.077Z,5.75
2023-02-18T19:59:10.691Z,5.82
2023-02-18T20:01:56.392Z,6.22
2023-02-18T20:04:43.062Z,5.78
2023-02-18T20:07:28.998Z,7.57
2023-02-18T20:10:17.493Z,23.05
2023-02-18T20:13:05.889Z,22.40
2023-02-18T20:15:51.524Z,18.50
2023-02-18T20:18:36.920Z,11.57
2023-02-18T20:21:22.764Z,11.85
2023-02-18T20:24:09.827Z,9.25
2023-02-18T20:26:56.380Z,8.30
2023-02-18T20:29:42.046Z,6.50
2023-02-18T20:32:27.373Z,7.00
2023-02-18T20:35:13.126Z,6.10
2023-02-18T20:37:58.741Z,6.28
2023-02-18T20:40:44.408Z,6.15
2023-02-18T20:43:31.758Z,5.80
2023-02-18T20:46:22.689Z,5.95
2023-02-18T20:49:13.591Z,5.90
2023-02-18T20:51:59.166Z,6.45
2023-02-18T20:54:44.990Z,6.65
2023-02-18T20:57:30.680Z,5.68
2023-02-18T21:00:16.289Z,5.63
2023-02-18T21:03:02.106Z,5.93
2023-02-18T21:05:55.328Z,7.53
2023-02-18T21:08:42.280Z,7.07
2023-02-18T21:11:27.892Z,6.35
2023-02-18T21:14:13.316Z,6.47
2023-02-18T21:16:58.759Z,8.75
2023-02-18T21:19:44.645Z,10.70
2023-02-18T21:22:30.316Z,11.38
2023-02-18T21:25:15.821Z,10.15
2023-02-18T21:28:01.836Z,9.13
2023-02-18T21:30:47.295Z,10.38
2023-02-18T21:33:32.778Z,14.55
2023-02-18T21:36:19.088Z,13.20
2023-02-18T21:39:07.030Z,10.20
2023-02-18T21:41:52.700Z,10.68
2023-02-18T21:44:42.534Z,9.63
2023-02-18T21:47:28.463Z,10.10
2023-02-18T21:50:15.658Z,9.27
2023-02-18T21:53:04.517Z,8.90
2023-02-18T21:56:03.213Z,10.13
2023-02-18T21:58:49.101Z,9.40
2023-02-18T22:01:34.831Z,9.77
2023-02-18T22:04:20.875Z,9.88
2023-02-18T22:07:06.355Z,9.10
2023-02-18T22:09:53.733Z,8.90
2023-02-18T22:12:39.306Z,8.93
2023-02-18T22:15:24.734Z,9.25
2023-02-18T22:18:10.190Z,7.40
2023-02-18T22:20:55.657Z,7.33
2023-02-18T22:23:41.349Z,6.95
2023-02-18T22:26:26.759Z,7.55
2023-02-18T22:29:13.783Z,6.63
2023-02-18T22:31:59.280Z,6.53
2023-02-18T22:34:45.321Z,6.40
2023-02-18T22:37:30.720Z,6.27
2023-02-18T22:40:15.961Z,5.67
2023-02-18T22:43:01.582Z,6.10
2023-02-18T22:45:46.956Z,7.17
2023-02-18T22:48:34.053Z,7.73
2023-02-18T22:51:25.006Z,9.13
2023-02-18T22:54:13.652Z,9.00
2023-02-18T22:56:58.872Z,7.90
2023-02-18T22:59:44.530Z,8.13
2023-02-18T23:02:30.184Z,8.33
2023-02-18T23:05:15.969Z,9.83
2023-02-18T23:08:01.412Z,13.50
2023-02-18T23:10:46.897Z,9.10
2023-02-18T23:13:32.671Z,7.80
2023-02-18T23:16:17.945Z,7.80
2023-02-18T23:19:03.763Z,6.67
2023-02-18T23:21:49.628Z,6.70
2023-02-18T23:24:37.431Z,7.30
2023-02-18T23:27:24.508Z,10.17
2023-02-18T23:30:10.961Z,7.80
2023-02-18T23:32:56.269Z,7.53
2023-02-18T23:35:41.899Z,7.37
2023-02-18T23:38:27.544Z,6.73
2023-02-18T23:41:13.004Z,6.97
2023-02-18T23:43:58.661Z,6.90
2023-02-18T23:46:45.385Z,6.83
2023-02-18T23:49:30.841Z,6.43
2023-02-18T23:52:16.297Z,6.30
2023-02-18T23:55:02.016Z,6.40
2023-02-18T23:57:47.504Z,7.30
